createdAt,value
2018-11-25T00:01:24.608Z,16.67
2018-11-25T00:04:13.678Z,16.30
2018-11-25T00:10:10.751Z,16.77
2018-11-25T00:12:59.492Z,17.60
2018-11-25T00:15:48.303Z,15.20
2018-11-25T00:18:37.545Z,13.60
2018-11-25T00:21:26.454Z,14.87
2018-11-25T00:24:15.492Z,17.20
2018-11-25T00:27:04.266Z,15.60
2018-11-25T00:29:53.062Z,14.57
2018-11-25T00:32:42.019Z,16.20
2018-11-25T00:35:30.829Z,16.43
2018-11-25T00:38:19.554Z,13.60
2018-11-25T00:41:08.322Z,15.60
2018-11-25T00:43:57.072Z,16.97
2018-11-25T00:46:46.275Z,15.17
2018-11-25T00:52:49.612Z,14.53
2018-11-25T00:55:38.330Z,14.57
2018-11-25T00:58:27.148Z,14.67
2018-11-25T01:01:15.898Z,13.20
2018-11-25T01:04:04.814Z,13.40
2018-11-25T01:06:53.606Z,13.47
2018-11-25T01:09:42.689Z,12.63
2018-11-25T01:12:12.152Z,13.50
2018-11-25T01:15:00.879Z,13.27
2018-11-25T01:17:49.766Z,14.30
2018-11-25T01:20:38.671Z,13.20
2018-11-25T01:23:27.426Z,12.17
2018-11-25T01:26:09.267Z,12.60
2018-11-25T01:28:51.645Z,12.83
2018-11-25T01:31:33.069Z,13.03
2018-11-25T01:34:14.879Z,18.23
2018-11-25T01:36:56.495Z,21.50
2018-11-25T01:39:37.862Z,23.50
2018-11-25T01:42:19.385Z,23.73
2018-11-25T01:45:00.845Z,21.33
2018-11-25T01:47:42.240Z,17.63
2018-11-25T01:50:23.939Z,17.83
2018-11-25T01:53:05.737Z,15.57
2018-11-25T01:55:46.004Z,15.37
2018-11-25T01:58:34.899Z,13.30
2018-11-25T02:01:23.638Z,13.87
2018-11-25T02:07:26.884Z,14.30
2018-11-25T02:10:16.208Z,14.00
2018-11-25T02:13:04.917Z,14.33
2018-11-25T02:15:53.661Z,14.73
2018-11-25T02:18:42.483Z,13.37
2018-11-25T02:21:31.322Z,15.07
2018-11-25T02:24:20.498Z,14.07
2018-11-25T02:27:09.306Z,13.40
2018-11-25T02:29:58.108Z,13.13
2018-11-25T02:32:47.566Z,14.00
2018-11-25T02:35:36.269Z,15.00
2018-11-25T02:38:25.178Z,16.80
2018-11-25T02:41:13.954Z,35.97
2018-11-25T02:44:03.025Z,33.23
2018-11-25T02:46:51.732Z,17.93
2018-11-25T02:52:55.570Z,14.93
2018-11-25T02:55:44.320Z,14.07
2018-11-25T02:58:33.127Z,11.13
2018-11-25T03:01:21.909Z,12.28
2018-11-25T03:04:10.700Z,13.57
2018-11-25T03:06:59.687Z,12.80
2018-11-25T03:09:48.814Z,13.97
2018-11-25T03:12:37.630Z,11.23
2018-11-25T03:15:26.387Z,11.87
2018-11-25T03:24:44.387Z,12.03
2018-11-25T03:27:33.150Z,11.30
2018-11-25T03:30:22.033Z,10.77
2018-11-25T03:33:10.886Z,11.23
2018-11-25T03:35:59.641Z,10.67
2018-11-25T03:38:48.662Z,10.03
2018-11-25T03:41:37.631Z,9.58
2018-11-25T03:44:26.305Z,9.93
2018-11-25T03:47:15.117Z,9.90
2018-11-25T03:53:11.870Z,11.17
2018-11-25T03:56:07.471Z,11.43
2018-11-25T03:58:56.350Z,10.70
2018-11-25T04:01:45.225Z,10.40
2018-11-25T04:04:34.241Z,10.13
2018-11-25T04:07:23.076Z,9.70
2018-11-25T04:10:12.403Z,10.73
2018-11-25T04:16:15.886Z,11.37
2018-11-25T04:19:04.888Z,12.80
2018-11-25T04:21:53.726Z,12.33
2018-11-25T04:24:42.625Z,10.63
2018-11-25T04:27:31.417Z,10.73
2018-11-25T04:30:20.373Z,11.23
2018-11-25T04:33:09.079Z,10.03
2018-11-25T04:35:58.199Z,10.33
2018-11-25T04:38:47.060Z,10.95
2018-11-25T04:41:35.900Z,11.03
2018-11-25T04:44:24.628Z,10.83
2018-11-25T04:50:27.993Z,11.90
2018-11-25T04:56:25.330Z,11.80
2018-11-25T04:59:14.203Z,13.00
2018-11-25T05:02:02.994Z,13.50
2018-11-25T05:04:51.852Z,14.00
2018-11-25T05:07:40.841Z,13.80
2018-11-25T05:10:29.850Z,12.23
2018-11-25T05:16:33.124Z,12.65
2018-11-25T05:19:21.885Z,12.60
2018-11-25T05:22:10.606Z,12.80
2018-11-25T05:24:59.385Z,12.17
2018-11-25T05:27:48.096Z,11.13
2018-11-25T05:30:37.092Z,10.10
2018-11-25T05:33:25.994Z,9.53
2018-11-25T05:36:14.868Z,10.23
2018-11-25T05:42:11.879Z,9.18
2018-11-25T05:45:00.580Z,9.17
2018-11-25T05:47:49.714Z,9.93
2018-11-25T05:50:38.478Z,9.67
2018-11-25T05:53:27.316Z,9.23
2018-11-25T05:56:16.002Z,8.87
2018-11-25T05:59:04.897Z,8.73
2018-11-25T06:01:53.750Z,8.73
2018-11-25T06:04:42.544Z,7.90
2018-11-25T06:07:31.379Z,8.33
2018-11-25T06:10:20.136Z,8.47
2018-11-25T06:13:08.859Z,7.60
2018-11-25T06:15:58.029Z,7.60
2018-11-25T06:18:46.744Z,7.17
2018-11-25T06:21:35.564Z,6.87
2018-11-25T06:24:24.250Z,9.10
2018-11-25T06:27:13.093Z,7.07
2018-11-25T06:30:01.885Z,6.80
2018-11-25T06:32:50.652Z,6.75
2018-11-25T06:35:39.405Z,7.23
2018-11-25T06:38:28.150Z,7.33
2018-11-25T06:41:16.909Z,6.50
2018-11-25T06:44:05.896Z,6.80
2018-11-25T06:46:54.663Z,7.20
2018-11-25T06:49:43.360Z,7.10
2018-11-25T06:52:32.247Z,7.70
2018-11-25T06:55:21.013Z,7.65
2018-11-25T06:58:10.010Z,7.40
2018-11-25T07:00:58.823Z,6.80
2018-11-25T07:03:47.648Z,7.33
2018-11-25T07:06:36.460Z,6.50
2018-11-25T07:09:25.412Z,7.12
2018-11-25T07:12:14.519Z,7.03
2018-11-25T07:15:03.231Z,6.80
2018-11-25T07:17:51.998Z,6.75
2018-11-25T07:20:40.754Z,7.08
2018-11-25T07:23:29.506Z,6.95
2018-11-25T07:26:18.288Z,8.10
2018-11-25T07:29:07.207Z,7.97
2018-11-25T07:35:11.625Z,7.60
2018-11-25T07:38:00.391Z,8.40
2018-11-25T07:40:49.279Z,8.40
2018-11-25T07:43:38.098Z,8.17
2018-11-25T07:49:35.906Z,8.60
2018-11-25T07:52:24.623Z,9.30
2018-11-25T07:55:14.122Z,9.15
2018-11-25T07:58:03.335Z,9.63
2018-11-25T08:04:37.779Z,9.23
2018-11-25T08:07:08.275Z,8.80
2018-11-25T08:09:40.468Z,8.00
2018-11-25T08:19:25.120Z,8.58
2018-11-25T08:26:42.571Z,7.87
2018-11-25T08:29:31.717Z,8.00
2018-11-25T08:32:20.740Z,7.97
2018-11-25T08:35:09.645Z,8.30
2018-11-25T08:37:58.788Z,8.40
2018-11-25T08:40:47.755Z,8.30
2018-11-25T08:43:36.589Z,8.80
2018-11-25T08:46:25.676Z,8.40
2018-11-25T08:49:14.484Z,8.68
2018-11-25T08:52:03.323Z,8.77
2018-11-25T08:54:52.173Z,8.40
2018-11-25T08:57:41.230Z,8.35
2018-11-25T09:00:30.045Z,8.57
2018-11-25T09:03:18.759Z,9.20
2018-11-25T09:06:07.569Z,8.58
2018-11-25T09:08:56.574Z,8.53
2018-11-25T09:15:00.299Z,9.43
2018-11-25T09:17:49.053Z,9.03
2018-11-25T09:20:38.280Z,12.00
2018-11-25T09:23:27.288Z,11.03
2018-11-25T09:26:16.059Z,9.25
2018-11-25T09:29:04.915Z,10.67
2018-11-25T09:31:54.125Z,9.67
2018-11-25T09:34:42.934Z,9.50
2018-11-25T09:37:31.894Z,8.50
2018-11-25T09:40:23.997Z,8.60
2018-11-25T09:43:12.801Z,7.63
2018-11-25T09:46:01.595Z,8.37
2018-11-25T09:48:50.346Z,7.60
2018-11-25T09:54:53.523Z,9.07
2018-11-25T09:57:42.828Z,10.25
2018-11-25T10:00:50.894Z,9.70
2018-11-25T10:03:39.773Z,9.47
2018-11-25T10:06:28.551Z,8.90
2018-11-25T10:09:18.363Z,9.23
2018-11-25T10:12:07.209Z,8.80
2018-11-25T10:14:55.983Z,8.50
2018-11-25T10:17:44.780Z,8.43
2018-11-25T10:20:33.595Z,9.28
2018-11-25T10:23:22.370Z,11.73
2018-11-25T10:26:11.133Z,10.48
2018-11-25T10:28:59.907Z,10.80
2018-11-25T10:31:48.664Z,9.30
2018-11-25T10:34:37.481Z,9.10
2018-11-25T10:37:26.283Z,8.57
2018-11-25T10:40:15.582Z,8.40
2018-11-25T10:43:04.716Z,7.97
2018-11-25T10:45:53.635Z,8.93
2018-11-25T10:48:42.519Z,7.90
2018-11-25T10:51:31.474Z,7.07
2018-11-25T10:54:20.180Z,7.10
2018-11-25T10:57:09.118Z,7.03
2018-11-25T10:59:57.926Z,7.37
2018-11-25T11:02:47.330Z,7.53
2018-11-25T11:05:55.119Z,7.77
2018-11-25T11:08:44.048Z,9.00
2018-11-25T11:11:32.934Z,8.63
2018-11-25T11:14:21.728Z,8.63
2018-11-25T11:17:10.432Z,7.30
2018-11-25T11:23:14.094Z,8.13
2018-11-25T11:26:07.100Z,8.80
2018-11-25T11:28:51.631Z,8.67
2018-11-25T11:31:40.337Z,8.83
2018-11-25T11:34:29.145Z,9.00
2018-11-25T11:37:18.005Z,8.43
2018-11-25T11:40:10.226Z,9.30
2018-11-25T11:42:59.297Z,9.10
2018-11-25T11:45:48.248Z,9.43
2018-11-25T11:48:37.090Z,9.63
2018-11-25T11:51:27.327Z,10.03
2018-11-25T11:54:15.059Z,9.10
2018-11-25T11:57:03.821Z,8.60
2018-11-25T11:59:52.630Z,9.40
2018-11-25T12:02:41.634Z,9.70
2018-11-25T12:05:31.623Z,9.77
2018-11-25T12:08:20.465Z,9.87
2018-11-25T12:11:09.267Z,9.37
2018-11-25T12:13:58.059Z,10.37
2018-11-25T12:16:46.828Z,9.80
2018-11-25T12:19:35.570Z,9.50
2018-11-25T12:22:24.757Z,10.03
2018-11-25T12:31:38.334Z,10.63
2018-11-25T12:34:27.308Z,11.40
2018-11-25T12:37:16.190Z,13.37
2018-11-25T12:39:58.588Z,12.17
2018-11-25T12:42:39.890Z,12.47
2018-11-25T12:45:21.124Z,13.53
2018-11-25T12:48:02.529Z,13.83
2018-11-25T12:50:44.031Z,11.23
2018-11-25T12:53:25.272Z,10.70
2018-11-25T12:56:07.303Z,11.03
2018-11-25T12:58:49.067Z,11.57
2018-11-25T13:01:31.074Z,11.60
2018-11-25T13:04:12.534Z,12.10
2018-11-25T13:06:53.846Z,12.70
2018-11-25T13:09:35.545Z,11.30
2018-11-25T13:12:16.880Z,12.27
2018-11-25T13:14:58.346Z,10.40
2018-11-25T13:17:39.626Z,10.17
2018-11-25T13:20:21.245Z,10.43
2018-11-25T13:23:02.909Z,11.10
2018-11-25T13:25:44.486Z,11.77
2018-11-25T13:28:25.877Z,9.73
2018-11-25T13:31:07.380Z,11.93
2018-11-25T13:33:49.139Z,12.23
2018-11-25T13:36:30.970Z,10.30
2018-11-25T13:39:12.193Z,10.72
2018-11-25T13:41:54.007Z,10.57
2018-11-25T13:44:35.500Z,12.20
2018-11-25T13:47:17.059Z,10.97
2018-11-25T13:49:58.533Z,10.67
2018-11-25T13:52:39.858Z,10.00
2018-11-25T13:55:21.994Z,9.57
2018-11-25T13:58:03.569Z,10.47
2018-11-25T14:04:00.632Z,12.50
2018-11-25T14:06:50.314Z,11.47
2018-11-25T14:09:39.109Z,12.57
2018-11-25T14:12:27.813Z,11.47
2018-11-25T14:15:16.656Z,12.37
2018-11-25T14:18:05.633Z,12.20
2018-11-25T14:20:54.470Z,13.37
2018-11-25T14:23:43.310Z,12.77
2018-11-25T14:26:34.121Z,12.40
2018-11-25T14:29:22.976Z,12.70
2018-11-25T14:32:12.062Z,14.07
2018-11-25T14:35:01.293Z,13.30
2018-11-25T14:37:50.265Z,15.27
2018-11-25T14:40:39.346Z,13.63
2018-11-25T14:43:28.117Z,13.63
2018-11-25T14:46:16.811Z,14.93
2018-11-25T14:55:34.844Z,14.40
2018-11-25T14:58:23.582Z,13.37
2018-11-25T15:01:12.475Z,13.97
2018-11-25T15:04:01.237Z,16.17
2018-11-25T15:06:50.129Z,17.50
2018-11-25T15:09:39.027Z,16.50
2018-11-25T15:12:27.772Z,17.30
2018-11-25T15:15:17.286Z,16.57
2018-11-25T15:18:06.455Z,16.40
2018-11-25T15:20:55.315Z,17.60
2018-11-25T15:23:44.046Z,18.40
2018-11-25T15:26:32.844Z,21.70
2018-11-25T15:29:21.592Z,21.80
2018-11-25T15:32:10.455Z,20.53
2018-11-25T15:34:59.334Z,19.40
2018-11-25T15:37:48.776Z,17.20
2018-11-25T15:40:37.795Z,20.07
2018-11-25T15:43:26.555Z,21.30
2018-11-25T15:46:15.669Z,19.17
2018-11-25T15:49:04.428Z,20.87
2018-11-25T15:51:53.217Z,21.53
2018-11-25T15:54:42.066Z,22.10
2018-11-25T15:57:30.816Z,19.63
2018-11-25T16:00:20.074Z,23.27
2018-11-25T16:03:09.500Z,22.17
2018-11-25T16:06:17.588Z,25.00
2018-11-25T16:09:07.399Z,22.33
2018-11-25T16:15:11.807Z,25.13
2018-11-25T16:18:00.499Z,25.40
2018-11-25T16:20:49.378Z,22.10
2018-11-25T16:23:38.184Z,26.97
2018-11-25T16:26:28.537Z,25.70
2018-11-25T16:29:18.879Z,23.83
2018-11-25T16:32:07.653Z,24.03
2018-11-25T16:34:56.474Z,24.40
2018-11-25T16:37:45.393Z,23.80
2018-11-25T16:40:34.458Z,24.37
2018-11-25T16:43:23.544Z,22.20
2018-11-25T16:46:12.550Z,26.87
2018-11-25T16:49:01.453Z,22.67
2018-11-25T16:51:50.163Z,23.73
2018-11-25T16:54:38.920Z,20.90
2018-11-25T16:57:27.674Z,23.63
2018-11-25T17:00:17.360Z,26.23
2018-11-25T17:03:07.037Z,23.70
2018-11-25T17:05:56.081Z,24.03
2018-11-25T17:08:45.086Z,26.13
2018-11-25T17:11:34.126Z,29.93
2018-11-25T17:14:22.871Z,24.77
2018-11-25T17:20:26.304Z,23.40
2018-11-25T17:23:15.020Z,24.93
2018-11-25T17:26:03.923Z,27.73
2018-11-25T17:28:52.686Z,22.73
2018-11-25T17:34:55.699Z,23.23
2018-11-25T17:37:45.823Z,24.10
2018-11-25T17:40:34.821Z,27.73
2018-11-25T17:43:24.041Z,23.67
2018-11-25T17:46:12.948Z,23.80
2018-11-25T17:49:02.062Z,21.85
2018-11-25T17:51:50.859Z,26.47
2018-11-25T17:54:39.576Z,29.60
2018-11-25T17:57:28.418Z,26.20
2018-11-25T18:00:55.546Z,25.63
2018-11-25T18:03:44.348Z,28.93
2018-11-25T18:06:33.093Z,24.70
2018-11-25T18:09:21.908Z,26.00
2018-11-25T18:12:10.804Z,23.67
2018-11-25T18:14:59.494Z,27.13
2018-11-25T18:18:07.571Z,27.80
2018-11-25T18:20:57.459Z,27.10
2018-11-25T18:27:20.298Z,28.80
2018-11-25T18:30:12.536Z,30.60
2018-11-25T18:33:01.289Z,29.93
2018-11-25T18:35:50.271Z,30.87
2018-11-25T18:38:39.070Z,29.93
2018-11-25T18:41:28.141Z,32.73
2018-11-25T18:44:17.066Z,31.03
2018-11-25T18:50:20.208Z,33.17
2018-11-25T18:53:09.563Z,29.90
2018-11-25T18:55:58.387Z,35.00
2018-11-25T18:58:47.195Z,33.03
2018-11-25T19:01:38.395Z,34.50
2018-11-25T19:04:27.570Z,34.20
2018-11-25T19:07:16.319Z,32.43
2018-11-25T19:10:24.355Z,38.67
2018-11-25T19:13:13.190Z,33.83
2018-11-25T19:16:01.968Z,31.63
2018-11-25T19:18:50.934Z,31.80
2018-11-25T19:24:48.348Z,30.37
2018-11-25T19:33:53.531Z,31.47
2018-11-25T19:39:50.799Z,24.90
2018-11-25T19:42:40.387Z,19.93
2018-11-25T19:48:37.461Z,18.40
2018-11-25T19:51:17.378Z,17.87
2018-11-25T20:13:01.654Z,12.77
2018-11-25T20:15:50.812Z,12.10
2018-11-25T20:18:40.448Z,13.10
2018-11-25T20:21:48.257Z,14.00
2018-11-25T20:24:37.205Z,15.07
2018-11-25T20:27:45.046Z,15.30
2018-11-25T20:30:34.527Z,14.07
2018-11-25T20:33:42.391Z,14.70
2018-11-25T20:36:31.108Z,15.37
2018-11-25T20:39:38.938Z,14.70
2018-11-25T20:42:27.857Z,15.20
2018-11-25T20:45:39.173Z,15.00
2018-11-25T20:48:25.443Z,14.30
2018-11-25T20:51:14.488Z,16.03
2018-11-25T20:54:03.211Z,14.97
2018-11-25T20:56:52.028Z,16.60
2018-11-25T20:59:40.887Z,18.13
2018-11-25T21:02:29.687Z,15.13
2018-11-25T21:05:18.446Z,15.17
2018-11-25T21:08:07.285Z,17.37
2018-11-25T21:10:56.269Z,14.77
2018-11-25T21:13:45.123Z,17.50
2018-11-25T21:19:41.753Z,16.03
2018-11-25T21:22:30.508Z,16.30
2018-11-25T21:25:19.667Z,15.83
2018-11-25T21:28:08.884Z,14.90
2018-11-25T21:30:57.854Z,14.47
2018-11-25T21:33:46.620Z,15.60
2018-11-25T21:36:35.746Z,17.70
2018-11-25T21:39:24.662Z,18.50
2018-11-25T21:42:13.397Z,19.60
2018-11-25T21:45:02.278Z,17.87
2018-11-25T21:47:51.205Z,19.53
2018-11-25T21:53:54.234Z,16.33
2018-11-25T21:56:43.190Z,16.23
2018-11-25T21:59:31.938Z,17.50
2018-11-25T22:02:21.624Z,16.33
2018-11-25T22:05:10.051Z,17.10
2018-11-25T22:07:58.817Z,16.23
2018-11-25T22:14:02.861Z,16.80
2018-11-25T22:16:51.570Z,18.37
2018-11-25T22:19:40.608Z,16.10
2018-11-25T22:22:29.311Z,15.43
2018-11-25T22:25:18.945Z,18.07
2018-11-25T22:28:07.713Z,15.97
2018-11-25T22:34:05.005Z,19.20
2018-11-25T22:36:53.740Z,19.13
2018-11-25T22:39:42.708Z,17.10
2018-11-25T22:42:31.511Z,20.80
2018-11-25T22:45:20.976Z,21.20
2018-11-25T22:48:10.178Z,19.87
2018-11-25T22:50:59.092Z,19.60
2018-11-25T22:53:47.917Z,20.30
2018-11-25T22:56:36.865Z,20.80
2018-11-25T22:59:25.580Z,18.03
2018-11-25T23:02:14.579Z,21.23
2018-11-25T23:05:22.782Z,20.03
2018-11-25T23:08:12.130Z,18.37
2018-11-25T23:11:00.950Z,18.93
2018-11-25T23:13:49.872Z,15.27
2018-11-25T23:16:38.701Z,16.97
2018-11-25T23:22:41.787Z,16.30
2018-11-25T23:25:30.693Z,17.20
2018-11-25T23:28:19.479Z,18.13
2018-11-25T23:31:08.326Z,18.13
2018-11-25T23:33:57.109Z,19.13
2018-11-25T23:36:45.868Z,17.40
2018-11-25T23:39:34.746Z,21.23
2018-11-25T23:42:23.686Z,22.90
2018-11-25T23:45:15.725Z,21.37
2018-11-25T23:48:04.522Z,19.80
2018-11-25T23:54:01.553Z,16.27
2018-11-25T23:56:50.463Z,16.63
2018-11-25T23:59:39.465Z,15.70
